Time;durP1;ratioP1;P1;durP2;ratioP2;P2;SDS_P1;SDS_P2;PMS_P1;PMS_P2;Temp;Humidity;BMP_temperature;BMP_pressure;BME280_temperature;BME280_humidity;BME280_pressure;Samples;Min_cycle;Max_cycle;Signal;HPM_P1;HPM_P2
2023/04/05 00:01:52;;;;;;;;;;;11.80;51.70;;;;;;5055212;28;19919;-87
2023/04/05 00:04:22;;;;;;;;;;;11.80;51.70;;;;;;5036207;28;20194;-87
2023/04/05 00:06:51;;;;;;;;;;;11.80;51.80;;;;;;5054344;28;19916;-87
2023/04/05 00:09:21;;;;;;;;;;;11.80;51.80;;;;;;5034984;28;19920;-87
2023/04/05 00:11:49;;;;;;;;;;;11.80;51.90;;;;;;5054254;28;20206;-87
2023/04/05 00:14:18;;;;;;;;;;;11.80;51.90;;;;;;5053693;28;20206;-86
2023/04/05 00:16:46;;;;;;;;;;;11.70;51.90;;;;;;5037274;28;20008;-87
2023/04/05 00:19:12;;;;;;;;;;;11.70;52.00;;;;;;5038097;28;19909;-87
2023/04/05 00:21:41;;;;;;;;;;;11.70;52.00;;;;;;5037265;28;19920;-87
2023/04/05 00:24:14;;;;;;;;;;;11.70;52.00;;;;;;5054582;28;19920;-87
2023/04/05 00:26:43;;;;;;;;;;;11.70;52.10;;;;;;5039070;28;20163;-88
2023/04/05 00:29:08;;;;;;;;;;;11.70;52.10;;;;;;5045756;28;19909;-88
2023/04/05 00:31:37;;;;;;;;;;;11.70;52.10;;;;;;5034621;28;19920;-88
2023/04/05 00:34:07;;;;;;;;;;;11.60;52.10;;;;;;5031634;28;19920;-88
2023/04/05 00:36:36;;;;;;;;;;;11.60;52.10;;;;;;5049842;28;20543;-88
2023/04/05 00:39:05;;;;;;;;;;;11.60;52.10;;;;;;5033473;28;19935;-88
2023/04/05 00:41:30;;;;;;;;;;;11.60;52.20;;;;;;5033512;28;19908;-88
2023/04/05 00:43:56;;;;;;;;;;;11.60;52.20;;;;;;5035433;28;20202;-88
2023/04/05 00:46:21;;;;;;;;;;;11.60;52.30;;;;;;5033987;28;19995;-88
2023/04/05 00:48:47;;;;;;;;;;;11.60;52.30;;;;;;5051581;28;19998;-88
2023/04/05 00:51:16;;;;;;;;;;;11.60;52.30;;;;;;5034105;28;20259;-88
2023/04/05 00:53:46;;;;;;;;;;;11.50;52.70;;;;;;5035128;28;19917;-88
2023/04/05 00:56:12;;;;;;;;;;;11.50;52.30;;;;;;5054255;28;19908;-88
2023/04/05 00:58:41;;;;;;;;;;;11.50;52.40;;;;;;5053973;28;20061;-88
2023/04/05 01:01:17;;;;;;;;;;;11.50;52.40;;;;;;5036288;28;19909;-88
2023/04/05 01:03:48;;;;;;;;;;;11.50;52.40;;;;;;5035771;28;20309;-88
2023/04/05 01:06:14;;;;;;;;;;;11.50;52.50;;;;;;5036650;28;19912;-88
2023/04/05 01:08:45;;;;;;;;;;;11.50;52.50;;;;;;5053065;28;20003;-88
2023/04/05 01:11:12;;;;;;;;;;;11.50;52.50;;;;;;5038385;28;19909;-88
2023/04/05 01:13:38;;;;;;;;;;;11.50;52.50;;;;;;5037109;28;19974;-88
2023/04/05 01:16:06;;;;;;;;;;;11.50;52.50;;;;;;5037740;28;20214;-88
2023/04/05 01:18:35;;;;;;;;;;;11.50;52.40;;;;;;5039554;28;19919;-88
2023/04/05 01:21:22;;;;;;;;;;;11.50;52.40;;;;;;5040314;28;20165;-88
2023/04/05 01:23:50;;;;;;;;;;;11.50;52.40;;;;;;5058044;28;20283;-88
2023/04/05 01:26:28;;;;;;;;;;;11.50;52.30;;;;;;5058310;28;20235;-88
2023/04/05 01:29:17;;;;;;;;;;;11.50;52.30;;;;;;5041241;28;19916;-88
2023/04/05 01:31:59;;;;;;;;;;;11.60;52.30;;;;;;5040651;28;19915;-88
2023/04/05 01:34:27;;;;;;;;;;;11.60;52.20;;;;;;5042293;28;19908;-88
2023/04/05 01:37:00;;;;;;;;;;;11.60;52.20;;;;;;5057605;28;20308;-88
2023/04/05 01:39:32;;;;;;;;;;;11.60;52.10;;;;;;5041640;28;19915;-88
2023/04/05 01:41:58;;;;;;;;;;;11.60;52.10;;;;;;5041397;28;20450;-88
2023/04/05 01:44:24;;;;;;;;;;;11.60;52.10;;;;;;5051492;22;19940;-15
2023/04/05 01:46:49;;;;;;;;;;;11.60;52.00;;;;;;5020004;28;20012;-14
2023/04/05 01:49:27;;;;;;;;;;;11.60;52.00;;;;;;5034444;28;19909;-14
2023/04/05 01:51:55;;;;;;;;;;;11.60;52.00;;;;;;5018192;28;19920;-13
2023/04/05 01:54:30;;;;;;;;;;;11.60;52.00;;;;;;5035595;28;20210;-14
2023/04/05 01:56:56;;;;;;;;;;;11.60;52.00;;;;;;5035902;28;19909;-14
2023/04/05 01:59:21;;;;;;;;;;;11.60;51.90;;;;;;5045912;28;19909;-14
2023/04/05 02:01:59;;;;;;;;;;;11.60;52.00;;;;;;5056555;28;20006;-16
2023/04/05 02:04:27;;;;;;;;;;;11.60;52.00;;;;;;5038120;28;19924;-16
2023/04/05 02:06:53;;;;;;;;;;;11.60;52.00;;;;;;5055522;28;20065;-16
2023/04/05 02:09:18;;;;;;;;;;;11.60;51.90;;;;;;5057526;28;19913;-16
2023/04/05 02:11:44;;;;;;;;;;;11.60;51.90;;;;;;5039380;28;20093;-15
2023/04/05 02:14:13;;;;;;;;;;;11.60;51.90;;;;;;5039602;28;19978;-16
2023/04/05 02:19:44;;;;;;;;;;;11.60;52.30;;;;;;5014880;28;20541;-13
2023/04/05 02:22:17;;;;;;;;;;;11.60;52.00;;;;;;5018313;28;19916;-14
2023/04/05 02:24:48;;;;;;;;;;;11.60;52.00;;;;;;5054905;28;19948;-13
2023/04/05 02:27:17;;;;;;;;;;;11.60;52.00;;;;;;5036790;28;19910;-13
2023/04/05 02:29:43;;;;;;;;;;;11.60;52.00;;;;;;5056622;28;19909;-13
2023/04/05 02:35:20;;;;;;;;;;;11.50;52.00;;;;;;4995336;28;19916;-15
2023/04/05 02:37:45;;;;;;;;;;;11.60;52.00;;;;;;4994482;28;19914;-11
2023/04/05 02:40:26;;;;;;;;;;;11.60;51.90;;;;;;4995735;28;19910;-13
2023/04/05 02:42:54;;;;;;;;;;;11.80;51.60;;;;;;4978980;28;19910;-13
2023/04/05 02:45:20;;;;;;;;;;;12.00;51.10;;;;;;4995164;28;19962;-16
2023/04/05 02:50:49;;;;;;;;;;;12.60;50.30;;;;;;4994950;28;19920;-14
2023/04/05 02:53:24;;;;;;;;;;;12.80;49.70;;;;;;4994764;28;19997;-15
2023/04/05 02:55:55;;;;;;;;;;;13.00;49.50;;;;;;4995502;28;19913;-12
2023/04/05 02:58:52;;;;;;;;;;;13.10;49.20;;;;;;4994717;28;19917;-15
2023/04/05 03:01:43;;;;;;;;;;;13.10;49.10;;;;;;4978412;28;20236;-16
2023/04/05 03:04:27;;;;;;;;;;;13.10;49.00;;;;;;4954971;29;19993;-15
2023/04/05 03:07:02;;;;;;;;;;;13.20;49.00;;;;;;4994774;28;19910;-14
2023/04/05 03:09:32;;;;;;;;;;;13.30;48.90;;;;;;4994555;28;19917;-15
2023/04/05 03:14:48;;;;;;;;;;;13.60;48.40;;;;;;5056562;28;20190;-11
2023/04/05 03:17:29;;;;;;;;;;;13.70;48.10;;;;;;5039235;28;19974;-14
2023/04/05 03:20:16;;;;;;;;;;;13.80;48.00;;;;;;5051625;28;19915;-13
2023/04/05 03:23:00;;;;;;;;;;;13.90;47.90;;;;;;5053742;28;19913;-15
2023/04/05 03:25:56;;;;;;;;;;;13.90;47.80;;;;;;5051935;28;20308;-13
2023/04/05 03:28:43;;;;;;;;;;;13.90;47.80;;;;;;5052850;28;19909;-13
2023/04/05 03:31:12;;;;;;;;;;;13.80;47.80;;;;;;5052395;28;20124;-15
2023/04/05 03:36:44;;;;;;;;;;;13.70;48.00;;;;;;4994481;28;19918;-16
2023/04/05 03:39:12;;;;;;;;;;;13.60;48.10;;;;;;4992499;28;19910;-13
2023/04/05 03:44:26;;;;;;;;;;;13.40;48.30;;;;;;4993694;28;19960;-16
2023/04/05 03:47:10;;;;;;;;;;;13.40;48.40;;;;;;4995488;28;19925;-14
2023/04/05 03:49:38;;;;;;;;;;;13.30;48.50;;;;;;5052942;28;19909;-15
2023/04/05 03:52:09;;;;;;;;;;;13.20;48.70;;;;;;5056117;28;19909;-13
2023/04/05 03:55:15;;;;;;;;;;;13.00;48.80;;;;;;5054118;28;20000;-15
2023/04/05 03:57:55;;;;;;;;;;;13.00;49.00;;;;;;5053360;28;19925;-14
2023/04/05 04:00:29;;;;;;;;;;;12.80;49.10;;;;;;5052675;28;19917;-16
2023/04/05 04:02:59;;;;;;;;;;;12.80;49.30;;;;;;5052792;28;20058;-16
2023/04/05 04:05:24;;;;;;;;;;;12.70;49.40;;;;;;5052050;28;20214;-16
2023/04/05 04:07:50;;;;;;;;;;;12.60;49.40;;;;;;5036839;28;20290;-15
2023/04/05 04:10:19;;;;;;;;;;;12.70;49.40;;;;;;5036642;28;19916;-16
2023/04/05 04:12:45;;;;;;;;;;;12.70;49.50;;;;;;5052067;28;20022;-13
2023/04/05 04:15:35;;;;;;;;;;;12.70;49.40;;;;;;5050846;28;19999;-16
2023/04/05 04:18:13;;;;;;;;;;;12.80;49.30;;;;;;5053506;28;19909;-14
2023/04/05 04:20:38;;;;;;;;;;;12.90;49.10;;;;;;5053038;28;19909;-12
2023/04/05 04:23:30;;;;;;;;;;;13.00;48.80;;;;;;5030994;28;19909;-13
2023/04/05 04:25:56;;;;;;;;;;;13.20;48.60;;;;;;5049364;28;20258;-14
2023/04/05 04:28:27;;;;;;;;;;;13.30;48.30;;;;;;5052643;28;20305;-16
2023/04/05 04:31:03;;;;;;;;;;;13.40;48.20;;;;;;5052875;28;19994;-14
2023/04/05 04:33:52;;;;;;;;;;;13.40;48.10;;;;;;5036017;28;19992;-15
2023/04/05 04:36:33;;;;;;;;;;;13.50;48.00;;;;;;5034374;28;20360;-15
2023/04/05 04:39:05;;;;;;;;;;;13.50;48.00;;;;;;5033713;28;20332;-16
2023/04/05 04:41:43;;;;;;;;;;;13.50;48.00;;;;;;5051055;28;19908;-15
2023/04/05 04:44:15;;;;;;;;;;;13.40;48.00;;;;;;5028171;28;20258;-16
2023/04/05 04:49:24;;;;;;;;;;;13.40;48.00;;;;;;5027928;28;19982;-14
2023/04/05 04:51:58;;;;;;;;;;;13.40;48.10;;;;;;5015405;28;19909;-15
2023/04/05 04:54:32;;;;;;;;;;;13.30;48.10;;;;;;5031404;28;20349;-13
2023/04/05 04:57:26;;;;;;;;;;;13.30;48.10;;;;;;5032645;28;19924;-15
2023/04/05 04:59:51;;;;;;;;;;;13.20;48.20;;;;;;5051275;28;19948;-15
2023/04/05 05:02:29;;;;;;;;;;;13.20;48.20;;;;;;5113740;22;20024;-13
2023/04/05 05:05:05;;;;;;;;;;;13.20;48.30;;;;;;5098238;28;19919;-14
2023/04/05 05:10:41;;;;;;;;;;;13.10;48.40;;;;;;5031741;28;19917;-15
2023/04/05 05:13:07;;;;;;;;;;;13.10;48.30;;;;;;5030982;28;20156;-14
2023/04/05 05:15:32;;;;;;;;;;;13.20;48.30;;;;;;5029967;28;19916;-15
2023/04/05 05:17:58;;;;;;;;;;;13.20;48.20;;;;;;5029959;28;20346;-14
2023/04/05 05:20:27;;;;;;;;;;;13.20;48.20;;;;;;5030707;28;19969;-14
2023/04/05 05:25:40;;;;;;;;;;;13.20;48.10;;;;;;5113610;28;19919;-17
2023/04/05 05:28:09;;;;;;;;;;;13.20;48.10;;;;;;5093664;28;19919;-15
2023/04/05 05:30:47;;;;;;;;;;;13.20;48.00;;;;;;5094703;28;20292;-14
2023/04/05 05:33:18;;;;;;;;;;;13.20;48.00;;;;;;5095690;28;20356;-17
2023/04/05 05:35:48;;;;;;;;;;;13.20;48.00;;;;;;5113037;28;19916;-14
2023/04/05 05:38:17;;;;;;;;;;;13.30;48.00;;;;;;5096422;28;20284;-14
2023/04/05 05:40:42;;;;;;;;;;;13.20;48.00;;;;;;5112940;28;19919;-16
2023/04/05 05:43:14;;;;;;;;;;;13.20;47.90;;;;;;5092916;28;19907;-14
2023/04/05 05:45:47;;;;;;;;;;;13.30;48.00;;;;;;5093506;28;20197;-13
2023/04/05 05:48:12;;;;;;;;;;;13.30;48.00;;;;;;5114526;28;20085;-15
2023/04/05 05:50:38;;;;;;;;;;;13.30;47.90;;;;;;5095622;28;20418;-17
2023/04/05 05:53:04;;;;;;;;;;;13.40;47.80;;;;;;5113768;28;19915;-15
2023/04/05 05:55:38;;;;;;;;;;;13.50;47.70;;;;;;5113896;28;20087;-14
2023/04/05 05:58:04;;;;;;;;;;;13.60;47.70;;;;;;5112720;28;20331;-11
2023/04/05 06:00:29;;;;;;;;;;;13.70;47.50;;;;;;5114248;28;19988;-17
2023/04/05 06:02:57;;;;;;;;;;;13.80;47.30;;;;;;5113570;28;19941;-15
2023/04/05 06:05:24;;;;;;;;;;;14.00;47.10;;;;;;5113986;28;19916;-13
2023/04/05 06:07:52;;;;;;;;;;;14.20;47.00;;;;;;5111743;28;19918;-14
2023/04/05 06:10:21;;;;;;;;;;;14.40;46.70;;;;;;5111701;28;19907;-15
2023/04/05 06:12:49;;;;;;;;;;;14.80;46.50;;;;;;5093136;28;19940;-13
2023/04/05 06:15:51;;;;;;;;;;;15.20;46.10;;;;;;5110257;28;19907;-15
2023/04/05 06:18:29;;;;;;;;;;;15.60;45.60;;;;;;5090381;28;20007;-16
2023/04/05 06:20:54;;;;;;;;;;;16.10;45.10;;;;;;5089409;28;20068;-14
2023/04/05 06:23:26;;;;;;;;;;;16.40;44.60;;;;;;5090494;28;19911;-15
2023/04/05 06:25:52;;;;;;;;;;;16.70;44.30;;;;;;5108371;28;19918;-16
2023/04/05 06:28:20;;;;;;;;;;;17.00;44.00;;;;;;5110300;28;19916;-15
2023/04/05 06:30:46;;;;;;;;;;;17.20;43.60;;;;;;5108983;28;20025;-14
2023/04/05 06:33:11;;;;;;;;;;;17.50;43.30;;;;;;5109034;28;20006;-17
2023/04/05 06:35:40;;;;;;;;;;;17.70;43.00;;;;;;5110037;28;19938;-15
2023/04/05 06:38:12;;;;;;;;;;;17.90;42.80;;;;;;5095087;28;19908;-14
2023/04/05 06:40:43;;;;;;;;;;;18.10;42.50;;;;;;5087445;28;19969;-16
2023/04/05 06:43:15;;;;;;;;;;;18.40;42.30;;;;;;5108960;28;19908;-12
2023/04/05 06:45:47;;;;;;;;;;;18.60;42.00;;;;;;5110906;28;19922;-15
2023/04/05 06:48:12;;;;;;;;;;;18.80;41.70;;;;;;5111561;28;20316;-14
2023/04/05 06:50:39;;;;;;;;;;;19.00;41.50;;;;;;5110267;28;20373;-15
2023/04/05 06:53:08;;;;;;;;;;;19.20;41.20;;;;;;5092353;28;19915;-15
2023/04/05 06:55:36;;;;;;;;;;;19.40;41.00;;;;;;5110523;28;19915;-15
2023/04/05 06:58:32;;;;;;;;;;;19.60;40.80;;;;;;5112969;28;19908;-14
2023/04/05 07:01:10;;;;;;;;;;;19.80;40.60;;;;;;5092902;28;19943;-17
2023/04/05 07:03:36;;;;;;;;;;;20.00;40.30;;;;;;5090070;28;19919;-15
2023/04/05 07:06:22;;;;;;;;;;;20.20;40.10;;;;;;5108089;28;19916;-17
2023/04/05 07:08:51;;;;;;;;;;;20.40;39.90;;;;;;5091749;28;20274;-16
2023/04/05 07:11:20;;;;;;;;;;;20.60;39.70;;;;;;5089417;28;19908;-14
2023/04/05 07:13:55;;;;;;;;;;;20.70;39.50;;;;;;5091657;28;19908;-15
2023/04/05 07:16:23;;;;;;;;;;;20.90;39.30;;;;;;5092849;28;19907;-15
2023/04/05 07:19:08;;;;;;;;;;;21.10;39.20;;;;;;5092524;28;19908;-15
2023/04/05 07:21:33;;;;;;;;;;;21.20;39.00;;;;;;5095101;28;19915;-15
2023/04/05 07:24:10;;;;;;;;;;;21.40;38.90;;;;;;5094266;28;19908;-15
2023/04/05 07:26:36;;;;;;;;;;;21.50;38.70;;;;;;5093161;28;19919;-14
2023/04/05 07:29:03;;;;;;;;;;;21.60;38.60;;;;;;5092254;28;20090;-15
2023/04/05 07:31:38;;;;;;;;;;;21.80;38.50;;;;;;5089160;28;19908;-15
2023/04/05 07:34:06;;;;;;;;;;;21.90;38.40;;;;;;5092991;28;20007;-16
2023/04/05 07:36:32;;;;;;;;;;;22.10;38.20;;;;;;5110960;28;19947;-17
2023/04/05 07:39:05;;;;;;;;;;;22.20;38.20;;;;;;5092534;28;19935;-16
2023/04/05 07:41:31;;;;;;;;;;;22.30;38.10;;;;;;5110739;28;19911;-16
2023/04/05 07:43:57;;;;;;;;;;;22.40;38.00;;;;;;5093745;28;19911;-16
2023/04/05 07:46:28;;;;;;;;;;;22.50;37.90;;;;;;5110587;28;20338;-16
2023/04/05 07:48:57;;;;;;;;;;;22.60;37.80;;;;;;5109197;28;20292;-17
2023/04/05 07:51:49;;;;;;;;;;;22.70;37.70;;;;;;5090833;28;20180;-14
2023/04/05 07:54:15;;;;;;;;;;;22.80;37.50;;;;;;5080839;28;19994;-15
2023/04/05 07:56:44;;;;;;;;;;;22.90;37.40;;;;;;5106633;28;20097;-15
2023/04/05 07:59:11;;;;;;;;;;;23.10;37.40;;;;;;5117335;28;19922;-14
2023/04/05 08:01:40;;;;;;;;;;;23.20;37.30;;;;;;5100129;28;19985;-14
2023/04/05 08:04:05;;;;;;;;;;;23.20;37.10;;;;;;5099681;28;20471;-17
2023/04/05 08:06:40;;;;;;;;;;;23.40;37.10;;;;;;5096343;28;19919;-16
2023/04/05 08:09:07;;;;;;;;;;;23.40;37.00;;;;;;5107566;28;20085;-14
2023/04/05 08:11:36;;;;;;;;;;;23.50;36.90;;;;;;5089740;28;19916;-15
2023/04/05 08:14:05;;;;;;;;;;;23.60;36.80;;;;;;5089368;28;20239;-13
2023/04/05 08:16:34;;;;;;;;;;;23.60;36.80;;;;;;5107730;28;19943;-15
2023/04/05 08:18:59;;;;;;;;;;;23.70;36.70;;;;;;5108765;28;19907;-14
2023/04/05 08:21:27;;;;;;;;;;;23.80;36.60;;;;;;5107238;28;20001;-18
2023/04/05 08:23:53;;;;;;;;;;;23.90;36.50;;;;;;5107901;28;19908;-15
2023/04/05 08:26:19;;;;;;;;;;;24.00;36.50;;;;;;5092474;28;19912;-17
2023/04/05 08:28:45;;;;;;;;;;;24.10;36.40;;;;;;5112365;28;20235;-18
2023/04/05 08:31:11;;;;;;;;;;;24.20;36.40;;;;;;5112256;28;20292;-14
2023/04/05 08:33:36;;;;;;;;;;;24.20;36.30;;;;;;5093264;28;20235;-14
2023/04/05 08:36:09;;;;;;;;;;;24.20;36.20;;;;;;5113647;28;20182;-16
2023/04/05 08:38:50;;;;;;;;;;;24.40;36.30;;;;;;5095504;28;19915;-17
2023/04/05 08:41:20;;;;;;;;;;;24.40;36.20;;;;;;5095328;28;19930;-15
2023/04/05 08:43:52;;;;;;;;;;;24.50;36.00;;;;;;5093119;28;19907;-16
2023/04/05 08:46:33;;;;;;;;;;;24.50;36.00;;;;;;5109925;28;20376;-16
2023/04/05 08:49:10;;;;;;;;;;;24.60;36.00;;;;;;5110334;28;19951;-18
2023/04/05 08:51:39;;;;;;;;;;;24.60;35.90;;;;;;5112600;28;19908;-16
2023/04/05 08:54:08;;;;;;;;;;;24.70;35.90;;;;;;5095968;28;19904;-15
2023/04/05 08:56:37;;;;;;;;;;;24.90;35.70;;;;;;5093603;28;19908;-16
2023/04/05 08:59:21;;;;;;;;;;;25.10;35.60;;;;;;5110337;28;19984;-12
2023/04/05 09:01:51;;;;;;;;;;;25.20;35.40;;;;;;5091088;28;19908;-15
2023/04/05 09:04:23;;;;;;;;;;;25.40;35.30;;;;;;5092287;28;19915;-15
2023/04/05 09:06:55;;;;;;;;;;;25.50;35.30;;;;;;5112031;28;20185;-15
2023/04/05 09:09:21;;;;;;;;;;;25.60;35.20;;;;;;5092454;28;20135;-14
2023/04/05 09:11:50;;;;;;;;;;;25.80;35.10;;;;;;5111512;28;19908;-17
2023/04/05 09:14:25;;;;;;;;;;;25.90;35.00;;;;;;5094399;28;19907;-16
2023/04/05 09:16:54;;;;;;;;;;;26.00;34.90;;;;;;5093664;28;19908;-17
2023/04/05 09:19:20;;;;;;;;;;;26.00;34.80;;;;;;5092792;28;19994;-17
2023/04/05 09:21:59;;;;;;;;;;;26.10;34.80;;;;;;5106972;28;20261;-16
2023/04/05 09:24:41;;;;;;;;;;;26.20;34.70;;;;;;5109707;28;19915;-14
2023/04/05 09:27:08;;;;;;;;;;;26.30;34.70;;;;;;5089801;28;20239;-15
2023/04/05 09:29:35;;;;;;;;;;;26.40;35.00;;;;;;5109039;28;19908;-16
2023/04/05 09:32:02;;;;;;;;;;;26.40;34.50;;;;;;5091653;28;20188;-17
2023/04/05 09:34:29;;;;;;;;;;;26.50;34.50;;;;;;5108218;28;19908;-16
2023/04/05 09:36:55;;;;;;;;;;;26.50;34.40;;;;;;5092297;28;20053;-16
2023/04/05 09:39:27;;;;;;;;;;;26.50;34.40;;;;;;5093381;28;19908;-16
2023/04/05 09:42:11;;;;;;;;;;;26.70;34.40;;;;;;5094515;28;20011;-16
2023/04/05 09:45:06;;;;;;;;;;;26.70;34.30;;;;;;5112673;28;19908;-16
2023/04/05 09:47:33;;;;;;;;;;;26.80;34.30;;;;;;5093688;28;19912;-16
2023/04/05 09:50:18;;;;;;;;;;;26.80;34.30;;;;;;5091993;28;20204;-16
2023/04/05 09:52:45;;;;;;;;;;;26.80;34.30;;;;;;5109899;28;20161;-16
2023/04/05 09:55:27;;;;;;;;;;;26.70;34.20;;;;;;5111252;28;20151;-16
2023/04/05 09:57:59;;;;;;;;;;;26.70;34.30;;;;;;5090622;28;19937;-18
2023/04/05 10:00:27;;;;;;;;;;;26.50;34.30;;;;;;5090667;28;19908;-18
2023/04/05 10:02:56;;;;;;;;;;;26.30;34.30;;;;;;5109720;28;19907;-16
2023/04/05 10:05:28;;;;;;;;;;;25.90;34.50;;;;;;5089250;28;19936;-18
2023/04/05 10:08:14;;;;;;;;;;;25.20;34.50;;;;;;5107634;28;20033;-16
2023/04/05 10:10:45;;;;;;;;;;;24.30;34.90;;;;;;5090985;28;19915;-17
2023/04/05 10:13:11;;;;;;;;;;;23.30;35.50;;;;;;5089993;28;19907;-16
2023/04/05 10:15:42;;;;;;;;;;;22.50;36.20;;;;;;5090894;28;20181;-14
2023/04/05 10:18:12;;;;;;;;;;;21.80;36.80;;;;;;5107170;28;19908;-17
2023/04/05 10:20:48;;;;;;;;;;;21.20;37.50;;;;;;5089829;28;20132;-17
2023/04/05 10:23:37;;;;;;;;;;;20.60;38.10;;;;;;5090311;28;19927;-15
2023/04/05 10:26:18;;;;;;;;;;;20.20;38.60;;;;;;5099778;28;19923;-16
2023/04/05 10:28:46;;;;;;;;;;;19.80;39.20;;;;;;5089333;28;20216;-16
2023/04/05 10:31:45;;;;;;;;;;;19.40;39.60;;;;;;5090002;28;20265;-15
2023/04/05 10:34:25;;;;;;;;;;;19.20;40.00;;;;;;5106339;28;19941;-16
2023/04/05 10:36:53;;;;;;;;;;;19.00;40.30;;;;;;5107277;28;19908;-17
2023/04/05 10:39:40;;;;;;;;;;;18.80;40.50;;;;;;5107555;28;20010;-16
2023/04/05 10:42:09;;;;;;;;;;;18.70;40.70;;;;;;5109155;28;19908;-15
2023/04/05 10:44:35;;;;;;;;;;;18.50;40.90;;;;;;5108532;28;20171;-18
2023/04/05 10:47:02;;;;;;;;;;;18.40;41.10;;;;;;5107958;28;19939;-17
2023/04/05 10:49:57;;;;;;;;;;;18.30;41.30;;;;;;5089855;28;20411;-16
2023/04/05 10:52:23;;;;;;;;;;;18.20;41.40;;;;;;5090410;28;19908;-18
2023/04/05 10:54:58;;;;;;;;;;;18.00;41.60;;;;;;5089744;28;19908;-16
2023/04/05 10:57:24;;;;;;;;;;;17.90;41.70;;;;;;5088799;28;20006;-15
2023/04/05 10:59:50;;;;;;;;;;;17.90;41.90;;;;;;5089072;28;20010;-17
2023/04/05 11:02:16;;;;;;;;;;;17.80;42.00;;;;;;5105355;28;19937;-14
2023/04/05 11:04:42;;;;;;;;;;;17.70;42.10;;;;;;5087299;28;19908;-16
2023/04/05 11:07:17;;;;;;;;;;;17.60;42.20;;;;;;5106549;28;19940;-18
2023/04/05 11:09:55;;;;;;;;;;;17.50;42.30;;;;;;5088564;28;19908;-16
2023/04/05 11:12:58;;;;;;;;;;;17.40;42.40;;;;;;5089200;28;19908;-14
2023/04/05 11:15:27;;;;;;;;;;;17.40;42.60;;;;;;5108265;28;19907;-16
2023/04/05 11:18:09;;;;;;;;;;;17.30;42.70;;;;;;5107147;28;19908;-16
2023/04/05 11:21:04;;;;;;;;;;;17.20;42.90;;;;;;5089942;28;20044;-15
2023/04/05 11:23:48;;;;;;;;;;;17.10;43.00;;;;;;5088533;28;20055;-15
2023/04/05 11:26:17;;;;;;;;;;;17.00;43.20;;;;;;5088570;28;19935;-15
2023/04/05 11:28:59;;;;;;;;;;;17.00;43.30;;;;;;5107411;28;20189;-17
2023/04/05 11:31:28;;;;;;;;;;;16.90;43.40;;;;;;5091337;28;19907;-13
2023/04/05 11:34:12;;;;;;;;;;;16.90;43.60;;;;;;5090334;28;19908;-18
2023/04/05 11:36:40;;;;;;;;;;;16.80;43.70;;;;;;5107136;28;19908;-16
2023/04/05 11:39:19;;;;;;;;;;;16.70;43.80;;;;;;5089043;28;20393;-17
2023/04/05 11:41:54;;;;;;;;;;;16.70;43.90;;;;;;5105838;28;19908;-16
2023/04/05 11:44:23;;;;;;;;;;;16.70;44.00;;;;;;5107437;28;19950;-17
2023/04/05 11:47:09;;;;;;;;;;;16.60;44.00;;;;;;5087741;28;19919;-14
2023/04/05 11:49:38;;;;;;;;;;;16.60;44.10;;;;;;5106093;28;20071;-16
2023/04/05 11:52:17;;;;;;;;;;;16.50;44.10;;;;;;5089539;28;19912;-14
2023/04/05 11:54:47;;;;;;;;;;;16.50;44.20;;;;;;5089217;28;19912;-15
2023/04/05 11:57:25;;;;;;;;;;;16.50;44.20;;;;;;5088803;28;19918;-17
2023/04/05 12:00:25;;;;;;;;;;;16.40;44.30;;;;;;5086879;28;20027;-13
2023/04/05 12:03:09;;;;;;;;;;;16.40;44.30;;;;;;5106481;28;19908;-16
2023/04/05 12:06:00;;;;;;;;;;;16.40;44.40;;;;;;5109017;28;20303;-15
2023/04/05 12:08:52;;;;;;;;;;;16.40;44.50;;;;;;5107280;28;19920;-17
2023/04/05 12:11:32;;;;;;;;;;;16.30;44.60;;;;;;5087596;28;19908;-16
2023/04/05 12:13:59;;;;;;;;;;;16.30;44.70;;;;;;5087686;28;20104;-15
2023/04/05 12:16:37;;;;;;;;;;;16.20;44.70;;;;;;5088293;28;19972;-18
2023/04/05 12:19:08;;;;;;;;;;;16.20;44.80;;;;;;5107230;28;20016;-16
2023/04/05 12:21:49;;;;;;;;;;;16.20;44.90;;;;;;5087555;28;19973;-18
2023/04/05 12:24:21;;;;;;;;;;;16.10;45.00;;;;;;5087277;28;19912;-15
2023/04/05 12:26:47;;;;;;;;;;;16.10;45.00;;;;;;5107249;28;19916;-15
2023/04/05 12:32:03;;;;;;;;;;;16.00;45.20;;;;;;5104355;28;19942;-17
2023/04/05 12:34:35;;;;;;;;;;;16.00;45.30;;;;;;5085404;28;19908;-16
2023/04/05 12:37:02;;;;;;;;;;;16.00;45.30;;;;;;5087362;28;19908;-14
2023/04/05 12:39:32;;;;;;;;;;;16.00;45.40;;;;;;5086012;28;19908;-15
2023/04/05 12:41:57;;;;;;;;;;;15.90;45.50;;;;;;5087849;28;19908;-18
2023/04/05 12:44:34;;;;;;;;;;;15.90;45.50;;;;;;5089518;28;19919;-15
2023/04/05 12:47:16;;;;;;;;;;;15.90;45.60;;;;;;5089266;28;19912;-17
2023/04/05 12:49:41;;;;;;;;;;;15.80;45.60;;;;;;5084047;28;20193;-18
2023/04/05 12:52:07;;;;;;;;;;;15.80;45.70;;;;;;5087814;28;20291;-16
2023/04/05 12:54:33;;;;;;;;;;;15.80;45.80;;;;;;5084915;28;19915;-14
2023/04/05 12:57:00;;;;;;;;;;;15.80;45.80;;;;;;5086523;28;20053;-15
2023/04/05 12:59:26;;;;;;;;;;;15.80;45.90;;;;;;5084782;28;19939;-16
2023/04/05 13:01:57;;;;;;;;;;;15.70;45.90;;;;;;5084783;28;20450;-16
2023/04/05 13:04:26;;;;;;;;;;;15.70;45.80;;;;;;5083631;28;19912;-16
2023/04/05 13:06:54;;;;;;;;;;;15.70;45.90;;;;;;5100996;28;19916;-16
2023/04/05 13:09:22;;;;;;;;;;;15.70;46.00;;;;;;5081723;28;20085;-16
2023/04/05 13:11:51;;;;;;;;;;;15.70;46.00;;;;;;5104271;28;20270;-17
2023/04/05 13:14:31;;;;;;;;;;;15.70;46.10;;;;;;5106332;28;20011;-17
2023/04/05 13:17:15;;;;;;;;;;;15.60;46.10;;;;;;5088721;28;19916;-17
2023/04/05 13:19:52;;;;;;;;;;;15.60;46.20;;;;;;5089147;28;19908;-15
2023/04/05 13:22:20;;;;;;;;;;;15.60;46.20;;;;;;5105405;28;19908;-16
2023/04/05 13:24:46;;;;;;;;;;;15.60;46.30;;;;;;5087316;28;19921;-16
2023/04/05 13:27:11;;;;;;;;;;;15.60;46.40;;;;;;5086527;28;20166;-15
2023/04/05 13:29:37;;;;;;;;;;;15.60;46.40;;;;;;5086430;28;20205;-15
2023/04/05 13:32:03;;;;;;;;;;;15.50;46.40;;;;;;5086242;28;20163;-13
2023/04/05 13:34:28;;;;;;;;;;;15.50;46.50;;;;;;5086150;28;19955;-17
2023/04/05 13:36:54;;;;;;;;;;;15.50;46.60;;;;;;5102677;28;20046;-14
2023/04/05 13:39:20;;;;;;;;;;;15.50;46.70;;;;;;5085552;28;19908;-14
2023/04/05 13:41:45;;;;;;;;;;;15.50;46.70;;;;;;5085963;28;20273;-16
2023/04/05 13:44:14;;;;;;;;;;;15.50;46.70;;;;;;5086612;28;19908;-16
2023/04/05 13:46:55;;;;;;;;;;;15.50;46.80;;;;;;5088844;28;19919;-18
2023/04/05 13:49:20;;;;;;;;;;;15.50;46.80;;;;;;5087508;28;20163;-16
2023/04/05 13:51:49;;;;;;;;;;;15.40;46.80;;;;;;5088314;28;20083;-15
2023/04/05 13:54:17;;;;;;;;;;;15.40;46.80;;;;;;5087677;28;20258;-15
2023/04/05 13:56:49;;;;;;;;;;;15.40;46.90;;;;;;5089171;28;20062;-16
2023/04/05 13:59:15;;;;;;;;;;;15.40;47.00;;;;;;5089002;28;20013;-16
2023/04/05 14:02:10;;;;;;;;;;;15.40;47.10;;;;;;5088121;28;19919;-17
2023/04/05 14:04:46;;;;;;;;;;;15.40;47.10;;;;;;5085689;28;20171;-14
2023/04/05 14:07:17;;;;;;;;;;;15.40;47.10;;;;;;5087974;28;20227;-18
2023/04/05 14:09:43;;;;;;;;;;;15.40;47.20;;;;;;5088150;28;19923;-15
2023/04/05 14:12:09;;;;;;;;;;;15.40;47.20;;;;;;5088605;28;19912;-16
2023/04/05 14:14:37;;;;;;;;;;;15.30;47.20;;;;;;5086887;28;19912;-17
2023/04/05 14:17:03;;;;;;;;;;;15.40;47.30;;;;;;5086453;28;19997;-16
2023/04/05 14:19:29;;;;;;;;;;;15.30;47.30;;;;;;5086346;28;19943;-17
2023/04/05 14:22:00;;;;;;;;;;;15.30;47.40;;;;;;5095086;28;19908;-17
2023/04/05 14:24:32;;;;;;;;;;;15.30;47.40;;;;;;5086387;28;20258;-16
2023/04/05 14:27:01;;;;;;;;;;;15.30;47.40;;;;;;5088192;28;19920;-16
2023/04/05 14:29:35;;;;;;;;;;;15.30;47.30;;;;;;5084912;28;19959;-18
2023/04/05 14:32:01;;;;;;;;;;;15.30;47.40;;;;;;5085976;28;19908;-16
2023/04/05 14:34:26;;;;;;;;;;;15.30;47.50;;;;;;5087361;28;19937;-17
2023/04/05 14:36:52;;;;;;;;;;;15.30;47.50;;;;;;5086335;28;20041;-17
2023/04/05 14:39:26;;;;;;;;;;;15.30;47.60;;;;;;5089018;28;19908;-13
2023/04/05 14:42:01;;;;;;;;;;;15.30;47.70;;;;;;5088439;28;19919;-15
2023/04/05 14:44:45;;;;;;;;;;;15.30;47.80;;;;;;5091537;28;19908;-14
2023/04/05 14:47:11;;;;;;;;;;;15.30;47.80;;;;;;5090893;28;20459;-14
2023/04/05 14:49:36;;;;;;;;;;;15.30;47.90;;;;;;5092742;28;19908;-13
2023/04/05 14:52:02;;;;;;;;;;;15.20;47.80;;;;;;5096848;28;19948;-17
2023/04/05 14:54:31;;;;;;;;;;;15.20;47.60;;;;;;5096928;28;19908;-15
2023/04/05 14:56:59;;;;;;;;;;;15.20;47.60;;;;;;5097767;28;19939;-15
2023/04/05 14:59:27;;;;;;;;;;;15.20;47.60;;;;;;5097180;28;19950;-17
2023/04/05 15:01:53;;;;;;;;;;;15.20;47.60;;;;;;5088794;28;20294;-15
2023/04/05 15:04:19;;;;;;;;;;;15.20;47.90;;;;;;5085245;28;20079;-18
2023/04/05 15:07:03;;;;;;;;;;;15.20;47.80;;;;;;5083913;28;20276;-17
2023/04/05 15:09:32;;;;;;;;;;;15.20;47.50;;;;;;5082286;28;19920;-14
2023/04/05 15:11:57;;;;;;;;;;;15.20;47.80;;;;;;5083258;28;19908;-15
2023/04/05 15:14:29;;;;;;;;;;;15.10;47.90;;;;;;5086276;28;19908;-16